createdAt,value
2019-04-19T00:00:37.040Z,8.70
2019-04-19T00:03:09.942Z,8.73
2019-04-19T00:05:44.631Z,9.10
2019-04-19T00:08:31.345Z,10.53
2019-04-19T00:10:52.129Z,9.53
2019-04-19T00:13:17.704Z,9.17
2019-04-19T00:15:47.716Z,10.43
2019-04-19T00:18:19.661Z,8.23
2019-04-19T00:21:11.262Z,9.40
2019-04-19T00:23:28.284Z,7.87
2019-04-19T00:25:51.609Z,10.10
2019-04-19T00:28:31.284Z,9.30
2019-04-19T00:31:04.330Z,8.87
2019-04-19T00:33:33.082Z,10.37
2019-04-19T00:35:55.790Z,9.53
2019-04-19T00:38:45.567Z,8.43
2019-04-19T00:41:31.800Z,8.43
2019-04-19T00:44:19.622Z,8.47
2019-04-19T00:46:55.558Z,7.87
2019-04-19T00:49:15.997Z,8.07
2019-04-19T00:51:50.420Z,10.90
2019-04-19T00:54:18.042Z,10.53
2019-04-19T00:56:51.304Z,14.30
2019-04-19T00:59:14.380Z,8.60
2019-04-19T01:01:41.925Z,9.33
2019-04-19T01:04:17.407Z,8.17
2019-04-19T01:06:49.865Z,13.40
2019-04-19T01:09:30.401Z,9.20
2019-04-19T01:12:00.389Z,8.17
2019-04-19T01:14:29.027Z,8.33
2019-04-19T01:17:01.594Z,8.33
2019-04-19T01:19:20.807Z,8.50
2019-04-19T01:21:49.790Z,8.93
2019-04-19T01:24:26.471Z,8.17
2019-04-19T01:26:53.979Z,10.20
2019-04-19T01:29:23.000Z,9.83
2019-04-19T01:31:58.139Z,7.63
2019-04-19T01:34:26.228Z,8.03
2019-04-19T01:36:55.323Z,9.53
2019-04-19T01:39:36.251Z,10.60
2019-04-19T01:42:09.981Z,13.27
2019-04-19T01:44:53.365Z,8.03
2019-04-19T01:47:38.638Z,8.07
2019-04-19T01:50:06.456Z,8.50
2019-04-19T01:53:03.358Z,8.30
2019-04-19T01:55:09.804Z,10.70
2019-04-19T01:57:30.329Z,8.77
2019-04-19T02:00:02.010Z,7.83
2019-04-19T02:02:32.648Z,9.00
2019-04-19T02:05:07.886Z,8.93
2019-04-19T02:07:35.633Z,9.17
2019-04-19T02:10:15.346Z,9.37
2019-04-19T02:12:46.865Z,8.53
2019-04-19T02:15:11.774Z,8.63
2019-04-19T02:17:44.886Z,9.27
2019-04-19T02:20:11.860Z,7.70
2019-04-19T02:22:42.750Z,7.67
2019-04-19T02:25:18.414Z,8.77
2019-04-19T02:27:46.677Z,10.90
2019-04-19T02:30:23.993Z,8.87
2019-04-19T02:33:07.832Z,7.27
2019-04-19T02:35:41.916Z,8.37
2019-04-19T02:38:18.477Z,9.20
2019-04-19T02:41:01.206Z,7.67
2019-04-19T02:43:32.177Z,7.90
2019-04-19T02:46:05.478Z,7.93
2019-04-19T02:48:33.704Z,9.37
2019-04-19T02:51:08.689Z,10.03
2019-04-19T02:53:22.434Z,8.87
2019-04-19T02:56:11.178Z,8.40
2019-04-19T02:58:39.705Z,8.50
2019-04-19T03:01:22.155Z,9.83
2019-04-19T03:03:39.465Z,8.53
2019-04-19T03:06:08.740Z,9.50
2019-04-19T03:08:22.987Z,8.73
2019-04-19T03:11:07.502Z,8.97
2019-04-19T03:13:40.200Z,8.50
2019-04-19T03:16:10.080Z,9.03
2019-04-19T03:18:42.766Z,8.07
2019-04-19T03:21:11.442Z,8.80
2019-04-19T03:23:36.805Z,8.20
2019-04-19T03:26:18.621Z,9.57
2019-04-19T03:28:39.579Z,8.03
2019-04-19T03:33:59.552Z,8.27
2019-04-19T03:36:23.112Z,8.20
2019-04-19T03:38:48.775Z,8.67
2019-04-19T03:41:40.748Z,8.77
2019-04-19T03:44:15.974Z,8.50
2019-04-19T03:46:55.831Z,9.60
2019-04-19T03:49:23.831Z,15.23
2019-04-19T03:51:59.831Z,8.83
2019-04-19T03:54:21.767Z,11.63
2019-04-19T03:56:49.215Z,8.27
2019-04-19T03:59:04.970Z,8.23
2019-04-19T04:01:41.502Z,10.33
2019-04-19T04:04:11.965Z,14.70
2019-04-19T04:06:40.571Z,7.83
2019-04-19T04:09:20.515Z,8.47
2019-04-19T04:12:03.197Z,8.13
2019-04-19T04:14:46.734Z,9.70
2019-04-19T04:17:12.630Z,8.33
2019-04-19T04:19:42.120Z,8.13
2019-04-19T04:22:18.116Z,8.70
2019-04-19T04:24:55.463Z,11.17
2019-04-19T04:27:29.026Z,9.73
2019-04-19T04:30:00.324Z,9.67
2019-04-19T04:32:27.735Z,8.97
2019-04-19T04:35:05.587Z,8.73
2019-04-19T04:37:33.305Z,9.20
2019-04-19T04:39:51.342Z,10.07
2019-04-19T04:42:29.223Z,8.70
2019-04-19T04:45:18.700Z,10.20
2019-04-19T04:47:49.828Z,10.17
2019-04-19T04:50:34.062Z,10.77
2019-04-19T04:52:45.970Z,8.30
2019-04-19T04:55:20.141Z,8.30
2019-04-19T04:57:55.727Z,7.93
2019-04-19T05:00:30.310Z,10.10
2019-04-19T05:03:03.803Z,12.53
2019-04-19T05:05:38.499Z,8.87
2019-04-19T05:08:14.160Z,9.00
2019-04-19T05:10:41.048Z,8.67
2019-04-19T05:13:29.493Z,9.13
2019-04-19T05:15:47.906Z,9.27
2019-04-19T05:18:23.678Z,12.20
2019-04-19T05:20:47.451Z,9.47
2019-04-19T05:23:19.966Z,8.63
2019-04-19T05:25:50.999Z,8.80
2019-04-19T05:28:21.433Z,8.40
2019-04-19T05:30:44.909Z,7.80
2019-04-19T05:33:15.513Z,7.93
2019-04-19T05:35:58.219Z,9.60
2019-04-19T05:38:44.915Z,9.13
2019-04-19T05:41:29.733Z,8.63
2019-04-19T05:46:50.225Z,8.63
2019-04-19T05:49:18.116Z,8.03
2019-04-19T05:51:47.266Z,10.20
2019-04-19T05:54:05.405Z,9.20
2019-04-19T05:56:31.445Z,8.50
2019-04-19T05:59:10.989Z,9.37
2019-04-19T06:01:49.969Z,10.17
2019-04-19T06:04:21.029Z,9.67
2019-04-19T06:06:57.531Z,9.23
2019-04-19T06:09:07.071Z,8.63
2019-04-19T06:11:40.825Z,10.47
2019-04-19T06:14:35.114Z,10.77
2019-04-19T06:17:08.866Z,13.87
2019-04-19T06:19:45.533Z,10.53
2019-04-19T06:22:14.335Z,8.50
2019-04-19T06:24:51.804Z,10.43
2019-04-19T06:27:25.222Z,8.27
2019-04-19T06:29:59.049Z,9.30
2019-04-19T06:32:30.037Z,10.07
2019-04-19T06:34:54.068Z,8.67
2019-04-19T06:37:15.261Z,9.90
2019-04-19T06:39:39.864Z,9.90
2019-04-19T06:42:13.321Z,9.07
2019-04-19T06:45:00.686Z,9.33
2019-04-19T06:47:21.825Z,11.23
2019-04-19T06:49:43.673Z,10.47
2019-04-19T06:52:18.547Z,8.80
2019-04-19T06:54:46.075Z,10.17
2019-04-19T06:57:24.955Z,8.57
2019-04-19T06:59:57.807Z,11.50
2019-04-19T07:02:18.127Z,9.57
2019-04-19T07:04:57.487Z,9.07
2019-04-19T07:07:36.446Z,8.60
2019-04-19T07:10:17.046Z,9.67
2019-04-19T07:12:44.008Z,9.47
2019-04-19T07:15:12.499Z,9.63
2019-04-19T07:17:37.660Z,9.73
2019-04-19T07:20:11.346Z,9.33
2019-04-19T07:22:45.163Z,9.80
2019-04-19T07:25:26.992Z,7.83
2019-04-19T07:27:40.429Z,8.83
2019-04-19T07:30:02.222Z,8.45
2019-04-19T07:32:36.155Z,9.47
2019-04-19T07:35:13.303Z,9.25
2019-04-19T07:37:46.449Z,8.38
2019-04-19T07:40:26.374Z,9.48
2019-04-19T07:42:51.290Z,9.10
2019-04-19T07:45:28.659Z,10.30
2019-04-19T07:48:03.730Z,9.35
2019-04-19T07:50:34.257Z,9.10
2019-04-19T07:53:02.143Z,8.63
2019-04-19T07:55:31.795Z,10.00
2019-04-19T08:01:00.873Z,8.25
2019-04-19T08:03:35.895Z,10.43
2019-04-19T08:06:02.010Z,9.63
2019-04-19T08:08:39.375Z,8.90
2019-04-19T08:11:07.078Z,9.63
2019-04-19T08:28:26.554Z,8.38
2019-04-19T08:30:52.805Z,9.60
2019-04-19T08:33:18.950Z,7.78
2019-04-19T08:35:52.468Z,7.53
2019-04-19T08:38:23.152Z,9.98
2019-04-19T08:41:05.959Z,10.35
2019-04-19T08:43:41.881Z,9.45
2019-04-19T08:46:07.370Z,7.90
2019-04-19T08:49:02.871Z,9.25
2019-04-19T08:51:55.897Z,9.30
2019-04-19T08:54:47.437Z,7.85
2019-04-19T08:57:04.321Z,8.43
2019-04-19T08:59:50.536Z,8.30
2019-04-19T09:02:15.465Z,7.97
2019-04-19T09:04:50.684Z,7.60
2019-04-19T09:07:43.420Z,8.15
2019-04-19T09:10:10.377Z,8.33
2019-04-19T09:12:21.118Z,8.23
2019-04-19T09:14:57.732Z,8.03
2019-04-19T09:17:36.103Z,8.80
2019-04-19T09:22:25.349Z,9.78
2019-04-19T09:24:48.029Z,9.85
2019-04-19T09:27:38.463Z,8.33
2019-04-19T09:30:08.370Z,7.62
2019-04-19T09:32:20.783Z,8.55
2019-04-19T09:34:52.503Z,9.20
2019-04-19T09:37:24.005Z,8.38
2019-04-19T09:39:56.533Z,8.23
2019-04-19T09:42:30.311Z,8.10
2019-04-19T09:44:54.991Z,7.00
2019-04-19T09:47:20.879Z,7.20
2019-04-19T09:50:04.119Z,6.80
2019-04-19T09:52:44.439Z,7.03
2019-04-19T09:55:16.885Z,8.50
2019-04-19T09:57:43.290Z,7.17
2019-04-19T10:00:02.125Z,8.73
2019-04-19T10:02:31.657Z,8.23
2019-04-19T10:04:57.427Z,7.20
2019-04-19T10:07:27.143Z,8.75
2019-04-19T10:10:04.264Z,8.65
2019-04-19T10:12:29.233Z,6.70
2019-04-19T10:14:59.857Z,7.00
2019-04-19T10:17:30.877Z,10.72
2019-04-19T10:20:00.523Z,8.23
2019-04-19T10:22:30.788Z,7.03
2019-04-19T10:25:00.958Z,9.28
2019-04-19T10:27:31.464Z,6.28
2019-04-19T10:30:02.214Z,7.78
2019-04-19T10:32:33.128Z,7.00
2019-04-19T10:35:02.655Z,9.05
2019-04-19T10:37:33.519Z,7.87
2019-04-19T10:40:03.930Z,7.17
2019-04-19T10:42:33.646Z,5.87
2019-04-19T10:45:03.183Z,6.75
2019-04-19T10:47:33.621Z,9.78
2019-04-19T10:50:16.816Z,6.17
2019-04-19T10:52:35.328Z,8.25
2019-04-19T10:55:06.290Z,6.37
2019-04-19T10:57:35.905Z,7.40
2019-04-19T11:00:07.328Z,8.93
2019-04-19T11:02:38.446Z,7.42
2019-04-19T11:05:09.309Z,7.85
2019-04-19T11:07:40.288Z,7.55
2019-04-19T11:10:11.675Z,7.95
2019-04-19T11:12:42.778Z,7.55
2019-04-19T11:15:12.992Z,7.87
2019-04-19T11:17:43.637Z,14.35
2019-04-19T11:20:27.939Z,6.05
2019-04-19T11:22:45.961Z,6.05
2019-04-19T11:25:17.767Z,9.18
2019-04-19T11:27:49.916Z,10.65
2019-04-19T11:30:47.296Z,7.53
2019-04-19T11:33:25.605Z,7.50
2019-04-19T11:35:57.356Z,6.92
2019-04-19T11:38:27.282Z,8.48
2019-04-19T11:40:57.532Z,6.83
2019-04-19T11:43:27.581Z,7.53
2019-04-19T11:45:57.937Z,6.65
2019-04-19T11:48:30.286Z,6.12
2019-04-19T11:50:58.655Z,6.28
2019-04-19T11:53:34.750Z,4.40
2019-04-19T11:56:27.840Z,4.62
2019-04-19T11:59:05.014Z,4.30
2019-04-19T12:01:36.243Z,4.58
2019-04-19T12:04:07.995Z,4.35
2019-04-19T12:06:38.543Z,3.83
2019-04-19T12:09:12.264Z,4.47
2019-04-19T12:11:42.547Z,5.28
2019-04-19T12:14:12.331Z,4.25
2019-04-19T12:16:42.417Z,4.33
2019-04-19T12:19:12.121Z,5.05
2019-04-19T12:21:41.675Z,4.92
2019-04-19T12:24:11.188Z,4.65
2019-04-19T12:26:41.887Z,5.20
2019-04-19T12:29:24.493Z,5.87
2019-04-19T12:31:43.342Z,4.40
2019-04-19T12:34:13.296Z,4.90
2019-04-19T12:36:44.199Z,4.62
2019-04-19T12:39:14.828Z,4.53
2019-04-19T12:41:48.461Z,4.58
2019-04-19T12:44:17.972Z,5.08
2019-04-19T12:46:48.654Z,4.62
2019-04-19T12:49:18.645Z,5.70
2019-04-19T12:51:48.227Z,5.97
2019-04-19T12:54:18.234Z,5.00
2019-04-19T12:56:48.131Z,5.58
2019-04-19T12:59:20.061Z,6.67
2019-04-19T13:02:13.812Z,5.58
2019-04-19T13:05:00.267Z,4.75
2019-04-19T13:07:31.045Z,7.20
2019-04-19T13:10:00.694Z,4.72
2019-04-19T13:12:30.699Z,4.97
2019-04-19T13:15:01.893Z,5.97
2019-04-19T13:17:31.529Z,5.00
2019-04-19T13:20:10.148Z,5.33
2019-04-19T13:22:32.451Z,5.10
2019-04-19T13:25:02.017Z,5.60
2019-04-19T13:27:41.846Z,5.28
2019-04-19T13:30:12.169Z,5.17
2019-04-19T13:32:33.847Z,6.28
2019-04-19T13:35:03.540Z,5.25
2019-04-19T13:37:43.087Z,5.28
2019-04-19T13:40:22.216Z,5.75
2019-04-19T13:42:54.117Z,5.17
2019-04-19T13:45:29.079Z,5.42
2019-04-19T13:47:54.566Z,6.17
2019-04-19T13:50:32.319Z,6.72
2019-04-19T13:52:55.366Z,5.85
2019-04-19T13:55:24.910Z,6.12
2019-04-19T13:57:55.591Z,6.40
2019-04-19T14:00:40.750Z,7.35
2019-04-19T14:03:11.676Z,5.45
2019-04-19T14:05:41.758Z,7.50
2019-04-19T14:08:11.331Z,6.17
2019-04-19T14:10:41.349Z,7.42
2019-04-19T14:13:11.158Z,6.37
2019-04-19T14:15:42.720Z,6.10
2019-04-19T14:18:12.854Z,6.47
2019-04-19T14:20:48.448Z,7.80
2019-04-19T14:23:13.755Z,7.55
2019-04-19T14:25:43.333Z,6.45
2019-04-19T14:28:13.592Z,6.50
2019-04-19T14:30:43.550Z,6.28
2019-04-19T14:33:14.808Z,5.80
2019-04-19T14:35:44.532Z,6.70
2019-04-19T14:38:15.777Z,5.97
2019-04-19T14:40:45.662Z,6.50
2019-04-19T14:43:16.351Z,8.78
2019-04-19T14:45:46.596Z,7.05
2019-04-19T14:48:24.589Z,6.10
2019-04-19T14:50:56.664Z,6.30
2019-04-19T14:53:20.115Z,6.65
2019-04-19T14:55:50.113Z,7.45
2019-04-19T14:58:19.890Z,5.40
2019-04-19T15:01:07.075Z,6.10
2019-04-19T15:03:36.978Z,6.22
2019-04-19T15:06:07.888Z,9.13
2019-04-19T15:08:37.495Z,6.15
2019-04-19T15:11:07.507Z,7.47
2019-04-19T15:13:37.237Z,8.25
2019-04-19T15:16:07.040Z,6.90
2019-04-19T15:18:37.635Z,8.58
2019-04-19T15:21:13.615Z,9.23
2019-04-19T15:23:39.120Z,9.18
2019-04-19T15:26:08.776Z,5.85
2019-04-19T15:28:38.355Z,6.42
2019-04-19T15:31:08.151Z,5.78
2019-04-19T15:33:38.543Z,8.53
2019-04-19T15:36:08.496Z,5.20
2019-04-19T15:38:37.994Z,8.38
2019-04-19T15:41:08.135Z,6.08
2019-04-19T15:43:38.408Z,7.28
2019-04-19T15:46:09.313Z,6.22
2019-04-19T15:48:44.297Z,6.97
2019-04-19T15:51:18.329Z,5.90
2019-04-19T15:53:42.402Z,6.40
2019-04-19T15:56:13.191Z,6.12
2019-04-19T15:58:45.002Z,5.33
2019-04-19T16:01:16.517Z,6.85
2019-04-19T16:03:54.240Z,6.40
2019-04-19T16:06:36.225Z,8.15
2019-04-19T16:09:37.661Z,7.70
2019-04-19T16:12:16.005Z,6.28
2019-04-19T16:14:46.158Z,6.58
2019-04-19T16:17:16.093Z,6.08
2019-04-19T16:19:45.591Z,6.87
2019-04-19T16:22:16.138Z,7.28
2019-04-19T16:24:47.304Z,6.10
2019-04-19T16:27:17.563Z,7.17
2019-04-19T16:29:50.786Z,7.30
2019-04-19T16:32:18.889Z,6.37
2019-04-19T16:34:49.304Z,6.28
2019-04-19T16:37:19.082Z,6.37
2019-04-19T16:39:48.591Z,6.90
2019-04-19T16:42:18.915Z,6.75
2019-04-19T16:44:49.820Z,6.50
2019-04-19T16:47:19.558Z,8.10
2019-04-19T16:49:49.215Z,6.85
2019-04-19T16:52:18.729Z,6.78
2019-04-19T16:54:48.424Z,8.13
2019-04-19T16:57:24.735Z,7.42
2019-04-19T16:59:50.102Z,6.70
2019-04-19T17:02:19.808Z,7.50
2019-04-19T17:04:50.428Z,6.22
2019-04-19T17:07:20.684Z,6.10
2019-04-19T17:09:51.776Z,8.90
2019-04-19T17:12:21.398Z,8.33
2019-04-19T17:14:52.928Z,6.03
2019-04-19T17:17:38.710Z,6.75
2019-04-19T17:20:45.819Z,6.00
2019-04-19T17:23:16.892Z,7.72
2019-04-19T17:25:46.718Z,7.25
2019-04-19T17:28:16.952Z,8.50
2019-04-19T17:30:48.383Z,5.87
2019-04-19T17:33:18.146Z,6.12
2019-04-19T17:35:48.308Z,7.08
2019-04-19T17:39:47.051Z,6.72
2019-04-19T17:40:52.434Z,6.25
2019-04-19T17:43:23.209Z,6.22
2019-04-19T17:45:52.993Z,5.25
2019-04-19T17:48:22.817Z,5.55
2019-04-19T17:50:53.555Z,6.33
2019-04-19T17:53:25.227Z,6.78
2019-04-19T17:55:55.556Z,5.30
2019-04-19T17:58:25.654Z,5.50
2019-04-19T18:00:55.144Z,5.40
2019-04-19T18:03:24.914Z,6.08
2019-04-19T18:05:58.339Z,6.60
2019-04-19T18:08:32.606Z,5.75
2019-04-19T18:11:00.783Z,7.28
2019-04-19T18:13:31.127Z,5.10
2019-04-19T18:16:00.801Z,6.03
2019-04-19T18:18:41.307Z,6.58
2019-04-19T18:21:03.591Z,5.83
2019-04-19T18:23:42.150Z,6.90
2019-04-19T18:26:05.044Z,5.00
2019-04-19T18:28:41.118Z,5.20
2019-04-19T18:31:09.411Z,5.97
2019-04-19T18:33:50.895Z,5.50
2019-04-19T18:36:20.065Z,6.60
2019-04-19T18:38:46.359Z,6.15
2019-04-19T18:41:15.875Z,7.50
2019-04-19T18:43:57.215Z,10.38
2019-04-19T18:46:17.115Z,7.58
2019-04-19T18:48:47.483Z,8.13
2019-04-19T18:51:20.832Z,6.50
2019-04-19T18:53:59.959Z,7.25
2019-04-19T18:56:22.066Z,6.75
2019-04-19T18:58:50.634Z,5.55
2019-04-19T19:01:27.275Z,6.80
2019-04-19T19:03:51.878Z,6.62
2019-04-19T19:06:28.626Z,5.30
2019-04-19T19:09:01.053Z,6.92
2019-04-19T19:11:25.793Z,6.05
2019-04-19T19:13:55.370Z,6.33
2019-04-19T19:16:28.959Z,5.90
2019-04-19T19:18:59.318Z,5.05
2019-04-19T19:21:35.679Z,5.20
2019-04-19T19:24:26.104Z,5.25
2019-04-19T19:26:36.060Z,7.33
2019-04-19T19:29:02.235Z,5.92
2019-04-19T19:31:32.656Z,5.72
2019-04-19T19:34:03.643Z,5.60
2019-04-19T19:36:38.014Z,4.95
2019-04-19T19:39:12.749Z,5.72
2019-04-19T19:42:30.141Z,5.05
2019-04-19T19:44:31.002Z,5.85
2019-04-19T19:47:23.156Z,5.97
2019-04-19T19:49:50.181Z,5.00
2019-04-19T19:52:15.905Z,5.78
2019-04-19T19:54:48.517Z,7.12
2019-04-19T19:57:11.467Z,5.15
2019-04-19T19:59:33.107Z,7.33
2019-04-19T20:02:12.562Z,4.80
2019-04-19T20:04:28.997Z,5.95
2019-04-19T20:07:04.379Z,4.95
2019-04-19T20:09:32.391Z,5.53
2019-04-19T20:12:07.087Z,5.28
2019-04-19T20:14:35.198Z,5.22
2019-04-19T20:17:07.710Z,5.72
2019-04-19T20:19:35.072Z,5.95
2019-04-19T20:22:06.903Z,5.37
2019-04-19T20:24:50.708Z,6.17
2019-04-19T20:27:14.275Z,6.45
2019-04-19T20:29:39.439Z,5.95
2019-04-19T20:32:15.127Z,5.75
2019-04-19T20:34:40.747Z,7.97
2019-04-19T20:37:14.146Z,5.08
2019-04-19T20:39:45.507Z,5.30
2019-04-19T20:42:21.707Z,8.70
2019-04-19T20:44:56.424Z,5.58
2019-04-19T20:47:23.164Z,5.60
2019-04-19T20:49:48.249Z,5.37
2019-04-19T20:52:33.733Z,6.67
2019-04-19T20:55:19.270Z,5.90
2019-04-19T20:57:49.194Z,7.40
2019-04-19T21:00:11.716Z,9.58
2019-04-19T21:02:42.349Z,16.57
2019-04-19T21:05:13.667Z,7.12
2019-04-19T21:07:48.828Z,6.08
2019-04-19T21:10:16.934Z,5.58
2019-04-19T21:12:46.926Z,7.00
2019-04-19T21:15:24.305Z,6.03
2019-04-19T21:17:51.154Z,5.33
2019-04-19T21:20:25.789Z,5.87
2019-04-19T21:22:50.785Z,6.90
2019-04-19T21:25:31.185Z,5.78
2019-04-19T21:27:55.214Z,6.53
2019-04-19T21:30:22.885Z,5.42
2019-04-19T21:32:55.074Z,6.03
2019-04-19T21:35:23.626Z,5.40
2019-04-19T21:37:53.163Z,6.33
2019-04-19T21:40:29.143Z,7.17
2019-04-19T21:42:57.676Z,5.75
2019-04-19T21:45:28.178Z,5.92
2019-04-19T21:47:56.987Z,4.97
2019-04-19T21:50:31.182Z,6.28
2019-04-19T21:53:02.356Z,7.15
2019-04-19T21:55:36.623Z,6.42
2019-04-19T21:58:08.535Z,5.67
2019-04-19T22:00:58.778Z,6.90
2019-04-19T22:03:26.721Z,5.65
2019-04-19T22:05:57.050Z,8.38
2019-04-19T22:08:31.377Z,6.90
2019-04-19T22:10:58.353Z,4.85
2019-04-19T22:13:33.529Z,5.70
2019-04-19T22:16:01.686Z,4.92
2019-04-19T22:18:32.186Z,5.50
2019-04-19T22:21:04.687Z,5.65
2019-04-19T22:23:36.055Z,7.50
2019-04-19T22:26:14.511Z,6.97
2019-04-19T22:28:35.302Z,6.62
2019-04-19T22:31:07.267Z,7.25
2019-04-19T22:33:36.539Z,6.05
2019-04-19T22:36:07.642Z,6.45
2019-04-19T22:38:37.871Z,6.00
2019-04-19T22:41:12.407Z,6.08
2019-04-19T22:43:38.699Z,5.62
2019-04-19T22:46:10.645Z,5.20
2019-04-19T22:48:39.828Z,5.10
2019-04-19T22:51:13.818Z,5.67
2019-04-19T22:53:44.211Z,5.25
2019-04-19T22:56:21.990Z,8.77
2019-04-19T22:58:43.408Z,5.50
2019-04-19T23:01:31.841Z,8.20
2019-04-19T23:04:08.712Z,6.10
2019-04-19T23:06:34.455Z,6.33
2019-04-19T23:09:12.085Z,6.50
2019-04-19T23:11:37.404Z,9.55
2019-04-19T23:14:07.438Z,5.70
2019-04-19T23:16:43.697Z,5.27
2019-04-19T23:19:11.250Z,6.40
2019-04-19T23:21:43.956Z,6.90
2019-04-19T23:24:13.488Z,7.50
2019-04-19T23:27:00.214Z,8.40
2019-04-19T23:29:20.584Z,6.20
2019-04-19T23:31:47.645Z,6.67
2019-04-19T23:34:15.191Z,6.60
2019-04-19T23:36:45.090Z,7.47
2019-04-19T23:39:15.667Z,6.00
2019-04-19T23:41:46.938Z,5.93
2019-04-19T23:44:19.753Z,6.10
2019-04-19T23:46:47.746Z,6.97
2019-04-19T23:49:18.961Z,6.43
2019-04-19T23:51:49.424Z,6.80
2019-04-19T23:54:23.716Z,6.47
2019-04-19T23:57:02.011Z,6.35
2019-04-19T23:59:22.823Z,9.40
